Aeroporto :
LOGIN :

Iscrizione | Disclaimer

   EN    FR    IT 

 










Sommario :    VFR   VFR Marginale   IFR   IFR Intensivo   IFR Molto Intensivo
Visibilità : 
Base nubi : 
>= 8 km
>= 3000ft
5 / 8 km
1000 / 3000 ft
1500m / 5 km
500 / 1000 ft
800 / 1500m
200 / 500 ft
< 800m
< 200 ft
Simboli :   Temporali  Nebbia  Neve Forte  Precipitazioni Forti  Vento > 20 kt
SIGMETs :   Varie  Temporali  Ghiacco  Turbolenza  Onda orograficha  Ceneri Vulcaniche







- Altitudine del aeroporto : 359 ft
- Codice IATA : DEB


LHDC - Debrecen

ULTIMO METAR :
  • 180645Z AUTO 18004KT 150V230 CAVOK 19/16 Q1016 NOSIG

METARs OBSOLETI :
  • 180615Z AUTO 18004KT 150V210 CAVOK 18/15 Q1016 NOSIG
  • 180545Z AUTO 19003KT 140V230 9000 NSC 17/15 Q1017 NOSIG
  • 180515Z AUTO VRB03KT 8000 NSC 16/15 Q1017 NOSIG
  • 180445Z AUTO VRB03KT 8000 NSC 15/14 Q1017 NOSIG
  • 180415Z AUTO VRB02KT 8000 NSC 15/14 Q1016 NOSIG

TAF TAF LHDC
Valido dal 18 a 06 ore il 18 a 15 ore UTC


180515Z 1806/1815 19004KT CAVOK
BECMG 1807/1810 23008KT
Nessun NOTAM noto per questo aeroporto.



MetMap, La meteo Aeronautica in un colpo d'occhio ! - Copyright ORBIFLY Dicembre 2007 - Disclaimer

ORBIFLY MET'MAP TEAM :

Programmazione e sviluppo : Alexandra Zaïnal
Concezione e sviluppo : Baudouin d'Aumeries
Co-Programmazione e sviluppo : Marc-Olivier Méhu
Supporto tecnico e logistico : Manuel Goepfert
Aiuto per la traduzione : Arnaldo La Scala

Contatto : metmap@orbifly.com




FONTI E CREDITI :

   NOAA